createdAt,value
2023-04-27T00:00:55.289Z,99447.13
2023-04-27T00:03:26.270Z,99474.72
2023-04-27T00:05:57.223Z,99458.22
2023-04-27T00:08:27.696Z,99454.59
2023-04-27T00:10:58.794Z,99461.16
2023-04-27T00:13:29.422Z,99462.97
2023-04-27T00:16:04.322Z,99451.72
2023-04-27T00:18:35.706Z,99459.69
2023-04-27T00:21:06.348Z,99469.38
2023-04-27T00:23:36.995Z,99438.91
2023-04-27T00:26:07.521Z,99455.19
2023-04-27T00:28:37.945Z,99465.69
2023-04-27T00:31:10.010Z,99451.84
2023-04-27T00:33:40.497Z,99449.66
2023-04-27T00:36:11.856Z,99445.94
2023-04-27T00:38:42.362Z,99461.41
2023-04-27T00:41:12.752Z,99455.72
2023-04-27T00:43:47.389Z,99438.03
2023-04-27T00:46:21.334Z,99459.94
2023-04-27T00:48:51.845Z,99454.09
2023-04-27T00:51:22.300Z,99448.88
2023-04-27T00:53:55.530Z,99446.72
2023-04-27T00:56:26.076Z,99448.06
2023-04-27T00:58:56.527Z,99468.59
2023-04-27T01:01:28.824Z,99435.25
2023-04-27T01:03:59.632Z,99451.00
2023-04-27T01:06:30.568Z,99458.91
2023-04-27T01:09:01.096Z,99445.56
2023-04-27T01:11:31.788Z,99456.91
2023-04-27T01:14:07.365Z,99456.63
2023-04-27T01:16:39.776Z,99454.66
2023-04-27T01:19:11.448Z,99373.78
2023-04-27T01:21:41.903Z,99454.44
2023-04-27T01:24:14.163Z,99430.88
2023-04-27T01:26:44.561Z,99439.75
2023-04-27T01:29:15.382Z,99435.75
2023-04-27T01:31:45.971Z,99441.66
2023-04-27T01:34:16.457Z,99452.22
2023-04-27T01:36:46.860Z,99436.22
2023-04-27T01:39:18.892Z,99454.78
2023-04-27T01:41:49.379Z,99443.66
2023-04-27T01:44:21.480Z,99442.97
2023-04-27T01:46:51.943Z,99440.78
2023-04-27T01:49:22.465Z,99447.38
2023-04-27T01:51:52.873Z,99433.41
2023-04-27T01:54:26.793Z,99438.03
2023-04-27T01:56:59.457Z,99436.97
2023-04-27T01:59:30.013Z,99443.09
2023-04-27T02:02:00.531Z,99440.16
2023-04-27T02:04:31.218Z,99431.81
2023-04-27T02:07:01.711Z,99432.69
2023-04-27T02:09:33.798Z,99414.72
2023-04-27T02:12:04.597Z,99438.41
2023-04-27T02:14:35.149Z,99425.69
2023-04-27T02:17:05.790Z,99437.59
2023-04-27T02:19:36.209Z,99445.94
2023-04-27T02:22:06.934Z,99425.44
2023-04-27T02:24:40.415Z,99419.84
2023-04-27T02:27:11.350Z,99403.84
2023-04-27T02:29:42.263Z,99392.84
2023-04-27T02:32:13.133Z,99430.72
2023-04-27T02:34:43.688Z,99425.09
2023-04-27T02:37:14.150Z,99436.03
2023-04-27T02:39:46.243Z,99381.63
2023-04-27T02:42:17.212Z,99426.38
2023-04-27T02:44:47.658Z,99415.75
2023-04-27T02:47:18.585Z,99407.47
2023-04-27T02:49:49.015Z,99401.31
2023-04-27T02:52:19.375Z,99407.47
2023-04-27T02:54:51.546Z,99406.41
2023-04-27T02:57:21.911Z,99398.69
2023-04-27T02:59:52.453Z,99398.69
2023-04-27T03:02:23.011Z,99403.91
2023-04-27T03:04:57.523Z,99416.81
2023-04-27T03:07:27.954Z,99407.63
2023-04-27T03:10:00.093Z,99413.94
2023-04-27T03:12:30.512Z,99389.13
2023-04-27T03:15:01.768Z,99416.28
2023-04-27T03:17:32.221Z,99420.38
2023-04-27T03:20:02.930Z,99435.88
2023-04-27T03:22:36.646Z,99429.75
2023-04-27T03:25:11.636Z,99440.00
2023-04-27T03:27:44.198Z,99430.25
2023-04-27T03:30:15.722Z,99417.00
2023-04-27T03:32:47.720Z,99433.13
2023-04-27T03:35:18.465Z,99429.72
2023-04-27T03:37:48.876Z,99440.25
2023-04-27T03:40:20.923Z,99419.25
2023-04-27T03:42:51.506Z,99431.97
2023-04-27T03:45:23.212Z,99428.06
2023-04-27T03:47:53.727Z,99408.06
2023-04-27T03:50:24.150Z,99442.41
2023-04-27T03:52:54.568Z,99436.72
2023-04-27T03:55:26.737Z,99429.50
2023-04-27T03:57:57.204Z,99440.50
2023-04-27T04:00:27.798Z,99442.91
2023-04-27T04:02:58.604Z,99448.94
2023-04-27T04:05:29.141Z,99445.13
2023-04-27T04:08:02.784Z,99453.09
2023-04-27T04:10:34.913Z,99448.09
2023-04-27T04:13:05.335Z,99453.56
2023-04-27T04:15:35.886Z,99444.94
2023-04-27T04:18:06.550Z,99446.25
2023-04-27T04:20:38.314Z,99446.69
2023-04-27T04:23:08.737Z,99421.25
2023-04-27T04:25:41.089Z,99419.59
2023-04-27T04:28:11.822Z,99449.41
2023-04-27T04:30:42.248Z,99446.91
2023-04-27T04:33:12.745Z,99458.97
2023-04-27T04:35:43.809Z,99482.72
2023-04-27T04:38:14.388Z,99483.75
2023-04-27T04:40:46.595Z,99474.47
2023-04-27T04:43:17.068Z,99490.41
2023-04-27T04:45:47.636Z,99503.56
2023-04-27T04:48:18.583Z,99494.66
2023-04-27T04:50:49.135Z,99500.22
2023-04-27T04:53:19.548Z,99492.56
2023-04-27T04:55:51.624Z,99489.44
2023-04-27T04:58:22.103Z,99500.78
2023-04-27T05:00:52.488Z,99501.59
2023-04-27T05:03:23.169Z,99510.25
2023-04-27T05:05:53.731Z,99507.38
2023-04-27T05:08:24.113Z,99508.78
2023-04-27T05:10:56.723Z,99506.53
2023-04-27T05:13:27.722Z,99509.25
2023-04-27T05:16:07.256Z,99498.94
2023-04-27T05:18:38.353Z,99490.56
2023-04-27T05:21:15.915Z,99505.88
2023-04-27T05:23:46.823Z,99509.16
2023-04-27T05:26:20.266Z,99503.00
2023-04-27T05:28:51.708Z,99516.91
2023-04-27T05:31:22.248Z,99512.94
2023-04-27T05:33:52.848Z,99518.69
2023-04-27T05:36:23.283Z,99491.59
2023-04-27T05:38:53.723Z,99519.00
2023-04-27T05:41:25.898Z,99529.47
2023-04-27T05:43:56.258Z,99523.75
2023-04-27T05:46:26.871Z,99527.56
2023-04-27T05:48:57.440Z,99525.59
2023-04-27T05:51:28.065Z,99530.63
2023-04-27T05:53:58.454Z,99526.00
2023-04-27T05:56:30.482Z,99525.59
2023-04-27T05:59:02.557Z,99523.09
2023-04-27T06:01:33.334Z,99527.25
2023-04-27T06:04:03.969Z,99504.09
2023-04-27T06:06:37.976Z,99521.28
2023-04-27T06:09:08.987Z,99536.03
2023-04-27T06:11:41.077Z,99527.69
2023-04-27T06:14:11.511Z,99533.78
2023-04-27T06:16:42.626Z,99532.59
2023-04-27T06:19:13.197Z,99531.34
2023-04-27T06:21:43.797Z,99537.69
2023-04-27T06:24:17.219Z,99542.78
2023-04-27T06:26:49.237Z,99509.63
2023-04-27T06:29:19.677Z,99531.72
2023-04-27T06:31:50.199Z,99541.81
2023-04-27T06:34:20.708Z,99536.69
2023-04-27T06:36:51.290Z,99524.91
2023-04-27T06:39:21.902Z,99533.25
2023-04-27T06:41:53.932Z,99536.00
2023-04-27T06:44:24.550Z,99551.78
2023-04-27T06:46:54.945Z,99549.34
2023-04-27T06:49:25.437Z,99553.09
2023-04-27T06:51:55.858Z,99563.84
2023-04-27T06:54:26.559Z,99536.66
2023-04-27T06:56:58.666Z,99566.22
2023-04-27T06:59:29.212Z,99576.78
2023-04-27T07:02:00.360Z,99582.00
2023-04-27T07:04:31.113Z,99571.78
2023-04-27T07:07:01.630Z,99580.09
2023-04-27T07:09:33.027Z,99597.22
2023-04-27T07:12:06.187Z,99574.69
2023-04-27T07:14:37.078Z,99588.66
2023-04-27T07:17:07.513Z,99602.00
2023-04-27T07:19:39.247Z,99575.97
2023-04-27T07:22:10.868Z,99609.00
2023-04-27T07:24:41.231Z,99605.66
2023-04-27T07:27:13.314Z,99605.78
2023-04-27T07:29:44.317Z,99618.28
2023-04-27T07:32:14.902Z,99549.97
2023-04-27T07:34:53.429Z,99622.56
2023-04-27T07:37:25.779Z,99619.09
2023-04-27T07:39:56.173Z,99623.28
2023-04-27T07:42:28.368Z,99609.50
2023-04-27T07:44:59.635Z,99620.88
2023-04-27T07:47:29.949Z,99627.03
2023-04-27T07:50:00.642Z,99619.31
2023-04-27T07:52:31.131Z,99609.75
2023-04-27T07:55:01.597Z,99612.47
2023-04-27T07:57:33.700Z,99623.66
2023-04-27T08:00:07.464Z,99620.97
2023-04-27T08:02:38.109Z,99625.34
2023-04-27T08:05:09.600Z,99622.09
2023-04-27T08:07:44.629Z,99625.72
2023-04-27T08:10:16.951Z,99628.53
2023-04-27T08:12:49.005Z,99621.69
2023-04-27T08:15:19.780Z,99630.63
2023-04-27T08:17:50.254Z,99634.19
2023-04-27T08:20:20.708Z,99629.03
2023-04-27T08:22:54.026Z,99630.81
2023-04-27T08:25:24.751Z,99626.56
2023-04-27T08:27:57.379Z,99612.84
2023-04-27T08:30:27.895Z,99634.38
2023-04-27T08:32:58.331Z,99637.81
2023-04-27T08:35:28.834Z,99639.56
2023-04-27T08:37:59.286Z,99643.84
2023-04-27T08:40:29.799Z,99640.44
2023-04-27T08:43:05.725Z,99641.44
2023-04-27T08:45:36.368Z,99643.13
2023-04-27T08:48:07.063Z,99633.94
2023-04-27T08:50:42.134Z,99647.06
2023-04-27T08:53:20.764Z,99628.53
2023-04-27T08:55:54.217Z,99644.94
2023-04-27T08:58:38.626Z,99639.06
2023-04-27T09:01:13.570Z,99643.50
2023-04-27T09:03:47.573Z,99644.53
2023-04-27T09:06:32.518Z,99661.25
2023-04-27T09:09:07.805Z,99676.16
2023-04-27T09:11:41.858Z,99652.03
2023-04-27T09:14:27.394Z,99581.84
2023-04-27T09:17:04.725Z,99645.69
2023-04-27T09:19:35.334Z,99669.13
2023-04-27T09:22:10.438Z,99666.75
2023-04-27T09:24:41.622Z,99673.88
2023-04-27T09:27:13.512Z,99674.75
2023-04-27T09:29:45.474Z,99675.75
2023-04-27T09:32:21.513Z,99677.59
2023-04-27T09:34:52.628Z,99681.16
2023-04-27T09:37:23.660Z,99670.13
2023-04-27T09:39:58.707Z,99666.63
2023-04-27T09:42:34.490Z,99672.88
2023-04-27T09:45:14.413Z,99681.56
2023-04-27T09:48:00.605Z,99674.75
2023-04-27T09:50:31.446Z,99685.16
2023-04-27T09:53:02.303Z,99680.91
2023-04-27T09:55:37.015Z,99675.03
2023-04-27T09:58:26.799Z,99681.09
2023-04-27T10:01:03.147Z,99680.22
2023-04-27T10:03:41.980Z,99683.72
2023-04-27T10:06:57.841Z,99692.53
2023-04-27T10:09:31.547Z,99692.69
2023-04-27T10:12:18.388Z,99704.97
2023-04-27T10:14:55.857Z,99706.00
2023-04-27T10:17:33.915Z,99700.97
2023-04-27T10:20:05.645Z,99715.69
2023-04-27T10:22:43.020Z,99660.69
2023-04-27T10:25:28.563Z,99710.72
2023-04-27T10:28:00.890Z,99640.13
2023-04-27T10:30:36.598Z,99747.00
2023-04-27T10:33:18.525Z,99738.34
2023-04-27T10:35:57.743Z,99684.94
2023-04-27T10:38:35.278Z,99762.50
2023-04-27T10:41:06.511Z,99756.44
2023-04-27T10:43:37.912Z,99743.56
2023-04-27T10:46:15.770Z,99766.84
2023-04-27T10:48:48.521Z,99776.38
2023-04-27T10:51:21.555Z,99789.28
2023-04-27T10:53:55.646Z,99762.41
2023-04-27T10:56:26.208Z,99803.69
2023-04-27T10:59:04.691Z,99804.50
2023-04-27T11:01:35.364Z,99808.75
2023-04-27T11:04:08.074Z,99787.00
2023-04-27T11:06:46.640Z,99808.44
2023-04-27T11:09:27.993Z,99808.69
2023-04-27T11:11:59.349Z,99815.56
2023-04-27T11:14:30.045Z,99800.03
2023-04-27T11:17:01.947Z,99813.84
2023-04-27T11:19:34.210Z,99810.38
2023-04-27T11:22:11.468Z,99818.94
2023-04-27T11:24:51.251Z,99818.84
2023-04-27T11:27:26.122Z,99816.97
2023-04-27T11:29:56.668Z,99819.41
2023-04-27T11:32:29.232Z,99809.91
2023-04-27T11:35:01.675Z,99820.25
2023-04-27T11:37:32.559Z,99828.94
2023-04-27T11:40:05.302Z,99839.28
2023-04-27T11:42:37.642Z,99823.91
2023-04-27T11:45:12.626Z,99821.50
2023-04-27T11:47:48.863Z,99822.31
2023-04-27T11:50:21.248Z,99821.38
2023-04-27T11:52:55.473Z,99801.34
2023-04-27T11:55:26.305Z,99813.19
2023-04-27T11:58:03.664Z,99819.00
2023-04-27T12:00:37.374Z,99812.81
2023-04-27T12:03:12.642Z,99810.88
2023-04-27T12:05:53.601Z,99800.22
2023-04-27T12:08:27.046Z,99806.13
2023-04-27T12:10:57.799Z,99799.16
2023-04-27T12:13:28.289Z,99806.84
2023-04-27T12:15:59.732Z,99820.66
2023-04-27T12:18:31.417Z,99815.59
2023-04-27T12:21:04.021Z,99808.72
2023-04-27T12:23:39.911Z,99818.22
2023-04-27T12:26:11.968Z,99812.25
2023-04-27T12:28:45.187Z,99815.72
2023-04-27T12:31:29.154Z,99819.03
2023-04-27T12:34:00.412Z,99827.69
2023-04-27T12:36:32.713Z,99831.88
2023-04-27T12:39:20.146Z,99832.59
2023-04-27T12:41:53.967Z,99823.38
2023-04-27T12:44:24.843Z,99829.56
2023-04-27T12:46:56.952Z,99833.06
2023-04-27T12:49:27.603Z,99835.59
2023-04-27T12:51:59.822Z,99843.28
2023-04-27T12:54:35.571Z,99840.63
2023-04-27T12:57:07.286Z,99834.59
2023-04-27T12:59:42.157Z,99831.88
2023-04-27T13:02:15.702Z,99842.97
2023-04-27T13:04:49.134Z,99841.13
2023-04-27T13:07:21.577Z,99841.00
2023-04-27T13:09:51.964Z,99847.91
2023-04-27T13:12:22.570Z,99854.63
2023-04-27T13:14:55.141Z,99861.47
2023-04-27T13:17:26.383Z,99856.25
2023-04-27T13:20:00.521Z,99862.22
2023-04-27T13:22:35.273Z,99860.41
2023-04-27T13:25:06.870Z,99871.50
2023-04-27T13:27:37.580Z,99866.97
2023-04-27T13:30:09.222Z,99871.91
2023-04-27T13:32:40.753Z,99881.28
2023-04-27T13:35:12.897Z,99872.59
2023-04-27T13:37:45.027Z,99857.84
2023-04-27T13:40:15.895Z,99881.28
2023-04-27T13:42:57.066Z,99887.91
2023-04-27T13:45:29.853Z,99853.16
2023-04-27T13:48:03.290Z,99842.78
2023-04-27T13:50:36.796Z,99906.31
2023-04-27T13:53:12.513Z,99852.47
2023-04-27T13:55:42.871Z,99907.22
2023-04-27T13:58:14.119Z,99907.53
2023-04-27T14:01:06.488Z,99875.56
2023-04-27T14:03:54.835Z,99911.09
2023-04-27T14:06:25.613Z,99908.53
2023-04-27T14:08:57.639Z,99911.91
2023-04-27T14:11:28.422Z,99880.38
2023-04-27T14:13:59.034Z,99911.59
2023-04-27T14:20:11.608Z,99926.00
2023-04-27T14:22:44.317Z,99919.97
2023-04-27T14:25:21.967Z,99906.81
2023-04-27T14:27:53.930Z,99925.25
2023-04-27T14:30:24.390Z,99927.09
2023-04-27T14:32:59.629Z,99927.09
2023-04-27T14:35:45.656Z,99931.06
2023-04-27T14:38:16.150Z,99936.19
2023-04-27T14:40:51.120Z,99937.69
2023-04-27T14:43:21.519Z,99950.06
2023-04-27T14:45:55.645Z,99950.78
2023-04-27T14:48:36.159Z,99956.44
2023-04-27T14:51:07.102Z,99964.94
2023-04-27T14:53:37.548Z,99970.06
2023-04-27T14:56:10.146Z,99961.44
2023-04-27T14:58:40.736Z,99966.66
2023-04-27T15:01:11.824Z,99969.78
2023-04-27T15:03:42.622Z,99962.47
2023-04-27T15:06:13.300Z,99962.41
2023-04-27T15:08:44.265Z,99970.78
2023-04-27T15:11:16.461Z,99965.88
2023-04-27T15:13:46.946Z,99971.13
2023-04-27T15:16:23.613Z,99984.94
2023-04-27T15:18:54.151Z,99988.50
2023-04-27T15:21:45.341Z,99968.19
2023-04-27T15:24:15.966Z,99970.78
2023-04-27T15:26:55.194Z,99951.03
2023-04-27T15:29:25.656Z,99967.34
2023-04-27T15:31:58.737Z,99959.56
2023-04-27T15:34:32.706Z,99966.25
2023-04-27T15:37:03.777Z,99953.28
2023-04-27T15:39:34.301Z,99964.56
2023-04-27T15:42:22.168Z,99956.75
2023-04-27T15:44:54.274Z,99965.50
2023-04-27T15:47:24.918Z,99959.34
2023-04-27T15:49:57.785Z,99943.53
2023-04-27T15:52:31.901Z,99964.28
2023-04-27T15:55:06.734Z,99959.06
2023-04-27T15:57:41.704Z,99957.41
2023-04-27T16:00:13.549Z,99967.75
2023-04-27T16:02:44.244Z,99955.75
2023-04-27T16:05:14.958Z,99962.19
2023-04-27T16:07:54.343Z,99962.88
2023-04-27T16:10:33.413Z,99962.69
2023-04-27T16:13:05.695Z,99974.19
2023-04-27T16:15:36.361Z,99970.47
2023-04-27T16:18:07.161Z,99972.34
2023-04-27T16:20:37.791Z,99975.06
2023-04-27T16:23:09.024Z,99979.44
2023-04-27T16:25:39.574Z,99972.78
2023-04-27T16:28:11.777Z,99973.72
2023-04-27T16:30:42.384Z,99971.19
2023-04-27T16:33:13.018Z,99979.78
2023-04-27T16:35:45.597Z,99981.34
2023-04-27T16:38:18.116Z,99975.25
2023-04-27T16:40:52.935Z,99988.13
2023-04-27T16:43:30.275Z,99986.41
2023-04-27T16:46:00.884Z,99991.38
2023-04-27T16:48:31.508Z,99990.50
2023-04-27T16:51:03.239Z,100002.00
2023-04-27T16:53:43.032Z,100005.47
2023-04-27T16:56:17.673Z,100013.66
2023-04-27T16:58:52.429Z,100012.94
2023-04-27T17:01:46.788Z,100012.69
2023-04-27T17:04:17.644Z,100025.50
2023-04-27T17:06:49.404Z,100007.88
2023-04-27T17:09:19.954Z,100013.22
2023-04-27T17:11:50.940Z,100024.19
2023-04-27T17:14:25.058Z,100028.41
2023-04-27T17:16:56.354Z,100039.41
2023-04-27T17:19:29.307Z,100038.59
2023-04-27T17:21:59.889Z,100051.63
2023-04-27T17:24:34.587Z,100037.81
2023-04-27T17:27:10.632Z,100061.00
2023-04-27T17:29:45.956Z,100068.84
2023-04-27T17:32:21.709Z,100060.66
2023-04-27T17:34:53.888Z,100069.25
2023-04-27T17:37:33.093Z,100070.22
2023-04-27T17:40:04.831Z,100069.44
2023-04-27T17:42:38.859Z,100081.50
2023-04-27T17:45:14.138Z,100069.50
2023-04-27T17:47:45.184Z,100076.03
2023-04-27T17:50:18.886Z,100087.50
2023-04-27T17:52:57.570Z,100104.38
2023-04-27T17:55:29.258Z,100099.09
2023-04-27T17:57:59.781Z,100126.72
2023-04-27T18:00:34.915Z,100121.03
2023-04-27T18:03:05.736Z,100121.97
2023-04-27T18:05:43.533Z,100133.06
2023-04-27T18:08:14.440Z,100138.34
2023-04-27T18:10:45.096Z,100142.81
2023-04-27T18:13:15.731Z,100137.50
2023-04-27T18:15:47.992Z,100145.75
2023-04-27T18:18:23.982Z,100156.09
2023-04-27T18:20:56.074Z,100167.72
2023-04-27T18:23:26.661Z,100159.94
2023-04-27T18:26:01.820Z,100167.91
2023-04-27T18:28:32.263Z,100180.72
2023-04-27T18:31:04.156Z,100184.19
2023-04-27T18:33:34.554Z,100189.97
2023-04-27T18:36:04.969Z,100195.09
2023-04-27T18:38:35.462Z,100199.97
2023-04-27T18:41:12.076Z,100210.50
2023-04-27T18:43:45.349Z,100213.13
2023-04-27T18:46:17.448Z,100215.75
2023-04-27T18:48:48.072Z,100216.13
2023-04-27T18:51:18.488Z,100221.13
2023-04-27T18:53:48.971Z,100216.91
2023-04-27T18:56:22.049Z,100221.44
2023-04-27T18:58:54.353Z,100228.50
2023-04-27T19:01:33.105Z,100232.66
2023-04-27T19:04:05.897Z,100231.66
2023-04-27T19:06:36.589Z,100236.09
2023-04-27T19:09:07.188Z,100240.31
2023-04-27T19:11:40.123Z,100231.69
2023-04-27T19:14:10.924Z,100249.56
2023-04-27T19:16:43.026Z,100256.63
2023-04-27T19:19:13.935Z,100262.97
2023-04-27T19:21:54.823Z,100260.31
2023-04-27T19:24:25.315Z,100274.16
2023-04-27T19:26:55.967Z,100288.38
2023-04-27T19:29:27.697Z,100280.72
2023-04-27T19:32:01.308Z,100289.72
2023-04-27T19:34:33.703Z,100306.66
2023-04-27T19:37:04.307Z,100277.22
2023-04-27T19:39:36.812Z,100305.66
2023-04-27T19:42:07.591Z,100308.72
2023-04-27T19:44:38.131Z,100322.97
2023-04-27T19:47:11.672Z,100324.38
2023-04-27T19:49:42.331Z,100324.06
2023-04-27T19:52:12.828Z,100272.22
2023-04-27T19:54:46.536Z,100333.25
2023-04-27T19:57:17.501Z,100335.63
2023-04-27T19:59:50.878Z,100331.50
2023-04-27T20:02:23.364Z,100338.34
2023-04-27T20:04:54.128Z,100337.66
2023-04-27T20:07:24.778Z,100355.13
2023-04-27T20:09:55.211Z,100359.88
2023-04-27T20:12:47.383Z,100364.84
2023-04-27T20:15:16.365Z,100367.53
2023-04-27T20:17:48.411Z,100368.13
2023-04-27T20:20:19.087Z,100380.00
2023-04-27T20:22:49.761Z,100385.59
2023-04-27T20:25:20.461Z,100391.88
2023-04-27T20:27:50.907Z,100389.78
2023-04-27T20:30:21.517Z,100398.28
2023-04-27T20:32:53.557Z,100402.88
2023-04-27T20:35:24.945Z,100404.16
2023-04-27T20:37:55.502Z,100406.31
2023-04-27T20:40:26.566Z,100408.41
2023-04-27T20:42:57.411Z,100394.88
2023-04-27T20:45:27.952Z,100400.53
2023-04-27T20:48:00.015Z,100408.78
2023-04-27T20:50:30.397Z,100403.00
2023-04-27T20:53:00.932Z,100411.69
2023-04-27T20:55:32.259Z,100420.53
2023-04-27T20:58:02.638Z,100408.69
2023-04-27T21:00:33.309Z,100433.06
2023-04-27T21:03:05.796Z,100433.28
2023-04-27T21:05:36.338Z,100433.50
2023-04-27T21:08:07.262Z,100435.34
2023-04-27T21:10:38.099Z,100445.97
2023-04-27T21:13:08.758Z,100421.78
2023-04-27T21:15:39.256Z,100445.38
2023-04-27T21:18:18.930Z,100446.34
2023-04-27T21:20:59.192Z,100449.91
2023-04-27T21:23:29.952Z,100458.63
2023-04-27T21:26:00.330Z,100426.53
2023-04-27T21:28:31.419Z,100458.66
2023-04-27T21:31:02.096Z,100456.00
2023-04-27T21:33:34.176Z,100469.06
2023-04-27T21:36:05.552Z,100469.09
2023-04-27T21:38:36.013Z,100476.06
2023-04-27T21:41:06.582Z,100465.78
2023-04-27T21:43:37.189Z,100476.16
2023-04-27T21:46:07.729Z,100465.84
2023-04-27T21:48:40.182Z,100460.69
2023-04-27T21:51:10.730Z,100467.72
2023-04-27T21:53:41.185Z,100469.47
2023-04-27T21:56:12.279Z,100472.09
2023-04-27T21:58:42.837Z,100467.81
2023-04-27T22:01:13.770Z,100476.53
2023-04-27T22:03:46.083Z,100452.31
2023-04-27T22:06:16.878Z,100481.81
2023-04-27T22:08:48.053Z,100488.72
2023-04-27T22:11:18.644Z,100489.63
2023-04-27T22:13:49.052Z,100483.56
2023-04-27T22:16:19.524Z,100480.13
2023-04-27T22:18:53.367Z,100480.16
2023-04-27T22:21:23.872Z,100476.72
2023-04-27T22:23:54.379Z,100474.13
2023-04-27T22:26:24.948Z,100476.72
2023-04-27T22:28:55.421Z,100476.72
2023-04-27T22:31:26.049Z,100485.38
2023-04-27T22:33:58.356Z,100479.31
2023-04-27T22:36:29.003Z,100473.25
2023-04-27T22:38:59.675Z,100481.91
2023-04-27T22:41:30.190Z,100481.91
2023-04-27T22:44:00.635Z,100476.72
2023-04-27T22:46:31.144Z,100487.09
2023-04-27T22:49:05.842Z,100494.00
2023-04-27T22:51:37.370Z,100479.25
2023-04-27T22:54:07.915Z,100497.47
2023-04-27T22:56:38.512Z,100504.41
2023-04-27T22:59:09.009Z,100499.16
2023-04-27T23:01:39.946Z,100497.47
2023-04-27T23:04:12.480Z,100499.16
2023-04-27T23:06:43.011Z,100500.81
2023-04-27T23:09:15.077Z,100505.97
2023-04-27T23:11:45.510Z,100517.22
2023-04-27T23:14:18.948Z,100507.63
2023-04-27T23:16:49.870Z,100518.00
2023-04-27T23:19:22.193Z,100513.56
2023-04-27T23:21:52.941Z,100523.94
2023-04-27T23:24:23.512Z,100518.66
2023-04-27T23:26:53.960Z,100516.06
2023-04-27T23:29:27.610Z,100508.28
2023-04-27T23:31:58.042Z,100524.78
2023-04-27T23:34:32.652Z,100525.59
2023-04-27T23:37:03.291Z,100522.97
2023-04-27T23:39:33.758Z,100521.34
2023-04-27T23:42:04.608Z,100520.38
2023-04-27T23:44:35.008Z,100527.38
2023-04-27T23:47:05.513Z,100528.25
2023-04-27T23:49:37.756Z,100531.69
2023-04-27T23:52:08.426Z,100521.19
2023-04-27T23:54:38.940Z,100535.88
2023-04-27T23:57:09.355Z,100532.38
2023-04-27T23:59:40.131Z,100525.31
